sensor_id;sensor_type;location;lat;lon;timestamp;temperature;humidity
17986;DHT22;9118;48.122;11.546;2023-05-31T00:00:33;18.60;93.70
17986;DHT22;9118;48.122;11.546;2023-05-31T00:03:03;17.90;93.80
17986;DHT22;9118;48.122;11.546;2023-05-31T00:05:31;17.40;93.70
17986;DHT22;9118;48.122;11.546;2023-05-31T00:08:00;17.90;93.50
17986;DHT22;9118;48.122;11.546;2023-05-31T00:10:37;18.70;94.10
17986;DHT22;9118;48.122;11.546;2023-05-31T00:13:06;17.90;93.80
17986;DHT22;9118;48.122;11.546;2023-05-31T00:15:33;18.10;93.90
17986;DHT22;9118;48.122;11.546;2023-05-31T00:18:00;17.70;93.60
17986;DHT22;9118;48.122;11.546;2023-05-31T00:20:28;18.60;93.70
17986;DHT22;9118;48.122;11.546;2023-05-31T00:22:55;17.90;94.10
17986;DHT22;9118;48.122;11.546;2023-05-31T00:25:23;17.80;94.30
17986;DHT22;9118;48.122;11.546;2023-05-31T00:27:50;17.60;93.40
17986;DHT22;9118;48.122;11.546;2023-05-31T00:30:19;17.80;94.00
17986;DHT22;9118;48.122;11.546;2023-05-31T00:32:55;17.70;94.00
17986;DHT22;9118;48.122;11.546;2023-05-31T00:35:22;17.70;93.80
17986;DHT22;9118;48.122;11.546;2023-05-31T00:37:51;17.60;93.30
17986;DHT22;9118;48.122;11.546;2023-05-31T00:40:18;17.40;93.10
17986;DHT22;9118;48.122;11.546;2023-05-31T00:42:45;17.70;94.10
17986;DHT22;9118;48.122;11.546;2023-05-31T00:45:13;17.80;94.40
17986;DHT22;9118;48.122;11.546;2023-05-31T00:47:42;17.50;93.80
17986;DHT22;9118;48.122;11.546;2023-05-31T00:50:10;17.60;93.50
17986;DHT22;9118;48.122;11.546;2023-05-31T00:52:37;17.60;93.60
17986;DHT22;9118;48.122;11.546;2023-05-31T00:55:05;17.50;93.70
17986;DHT22;9118;48.122;11.546;2023-05-31T00:57:32;17.50;93.20
17986;DHT22;9118;48.122;11.546;2023-05-31T01:00:00;17.70;93.80
17986;DHT22;9118;48.122;11.546;2023-05-31T01:02:27;17.50;93.70
17986;DHT22;9118;48.122;11.546;2023-05-31T01:04:59;16.10;92.80
17986;DHT22;9118;48.122;11.546;2023-05-31T01:07:27;17.40;93.30
17986;DHT22;9118;48.122;11.546;2023-05-31T01:09:54;17.10;92.90
17986;DHT22;9118;48.122;11.546;2023-05-31T01:12:29;17.30;93.60
17986;DHT22;9118;48.122;11.546;2023-05-31T01:15:06;17.30;93.30
17986;DHT22;9118;48.122;11.546;2023-05-31T01:17:41;17.30;93.30
17986;DHT22;9118;48.122;11.546;2023-05-31T01:20:15;17.40;93.30
17986;DHT22;9118;48.122;11.546;2023-05-31T01:23:04;17.40;93.50
17986;DHT22;9118;48.122;11.546;2023-05-31T01:25:40;17.30;93.50
17986;DHT22;9118;48.122;11.546;2023-05-31T01:28:14;17.10;93.40
17986;DHT22;9118;48.122;11.546;2023-05-31T01:30:44;17.10;93.70
17986;DHT22;9118;48.122;11.546;2023-05-31T01:33:12;17.30;93.50
17986;DHT22;9118;48.122;11.546;2023-05-31T01:35:40;17.00;93.40
17986;DHT22;9118;48.122;11.546;2023-05-31T01:38:07;16.90;93.60
17986;DHT22;9118;48.122;11.546;2023-05-31T01:40:34;16.90;93.80
17986;DHT22;9118;48.122;11.546;2023-05-31T01:43:03;16.90;93.70
17986;DHT22;9118;48.122;11.546;2023-05-31T01:45:33;16.80;93.60
17986;DHT22;9118;48.122;11.546;2023-05-31T01:48:04;16.70;93.10
17986;DHT22;9118;48.122;11.546;2023-05-31T01:50:32;16.80;93.70
17986;DHT22;9118;48.122;11.546;2023-05-31T01:53:00;16.90;93.80
17986;DHT22;9118;48.122;11.546;2023-05-31T01:55:27;16.70;94.50
17986;DHT22;9118;48.122;11.546;2023-05-31T01:57:55;16.90;93.90
17986;DHT22;9118;48.122;11.546;2023-05-31T02:00:23;16.80;93.50
17986;DHT22;9118;48.122;11.546;2023-05-31T02:02:53;16.70;93.30
17986;DHT22;9118;48.122;11.546;2023-05-31T02:05:20;17.70;92.90
17986;DHT22;9118;48.122;11.546;2023-05-31T02:07:47;16.70;92.90
17986;DHT22;9118;48.122;11.546;2023-05-31T02:10:15;17.10;92.90
17986;DHT22;9118;48.122;11.546;2023-05-31T02:12:43;16.70;92.50
17986;DHT22;9118;48.122;11.546;2023-05-31T02:15:10;16.70;92.60
17986;DHT22;9118;48.122;11.546;2023-05-31T02:17:38;16.50;92.10
17986;DHT22;9118;48.122;11.546;2023-05-31T02:20:09;16.80;92.50
17986;DHT22;9118;48.122;11.546;2023-05-31T02:22:38;16.60;92.40
17986;DHT22;9118;48.122;11.546;2023-05-31T02:25:08;16.70;92.40
17986;DHT22;9118;48.122;11.546;2023-05-31T02:27:41;16.60;92.30
17986;DHT22;9118;48.122;11.546;2023-05-31T02:30:09;16.80;91.70
17986;DHT22;9118;48.122;11.546;2023-05-31T02:32:37;16.50;92.60
17986;DHT22;9118;48.122;11.546;2023-05-31T02:35:09;16.50;93.10
17986;DHT22;9118;48.122;11.546;2023-05-31T02:37:37;16.50;92.30
17986;DHT22;9118;48.122;11.546;2023-05-31T02:40:06;16.40;92.90
17986;DHT22;9118;48.122;11.546;2023-05-31T02:42:34;16.40;92.30
17986;DHT22;9118;48.122;11.546;2023-05-31T02:45:01;16.40;93.00
17986;DHT22;9118;48.122;11.546;2023-05-31T02:47:30;17.20;93.10
17986;DHT22;9118;48.122;11.546;2023-05-31T02:49:57;16.20;92.20
17986;DHT22;9118;48.122;11.546;2023-05-31T02:52:26;16.30;92.00
17986;DHT22;9118;48.122;11.546;2023-05-31T02:54:53;16.50;91.60
17986;DHT22;9118;48.122;11.546;2023-05-31T02:57:21;16.20;91.00
17986;DHT22;9118;48.122;11.546;2023-05-31T02:59:53;16.40;91.10
17986;DHT22;9118;48.122;11.546;2023-05-31T03:02:21;16.50;90.70
17986;DHT22;9118;48.122;11.546;2023-05-31T03:04:49;16.20;90.50
17986;DHT22;9118;48.122;11.546;2023-05-31T03:07:17;16.20;90.20
17986;DHT22;9118;48.122;11.546;2023-05-31T03:09:45;16.20;90.20
17986;DHT22;9118;48.122;11.546;2023-05-31T03:12:12;16.20;89.10
17986;DHT22;9118;48.122;11.546;2023-05-31T03:14:40;16.20;90.00
17986;DHT22;9118;48.122;11.546;2023-05-31T03:17:07;16.20;89.00
17986;DHT22;9118;48.122;11.546;2023-05-31T03:19:34;16.10;87.70
17986;DHT22;9118;48.122;11.546;2023-05-31T03:22:01;16.00;87.60
17986;DHT22;9118;48.122;11.546;2023-05-31T03:24:28;16.00;86.60
17986;DHT22;9118;48.122;11.546;2023-05-31T03:26:57;16.00;86.60
17986;DHT22;9118;48.122;11.546;2023-05-31T03:29:26;16.30;87.80
17986;DHT22;9118;48.122;11.546;2023-05-31T03:31:53;16.00;87.70
17986;DHT22;9118;48.122;11.546;2023-05-31T03:34:20;15.90;87.00
17986;DHT22;9118;48.122;11.546;2023-05-31T03:36:48;15.90;86.80
17986;DHT22;9118;48.122;11.546;2023-05-31T03:39:16;16.00;86.80
17986;DHT22;9118;48.122;11.546;2023-05-31T03:41:43;15.90;87.10
17986;DHT22;9118;48.122;11.546;2023-05-31T03:44:12;15.80;88.00
17986;DHT22;9118;48.122;11.546;2023-05-31T03:46:39;16.10;87.20
17986;DHT22;9118;48.122;11.546;2023-05-31T03:49:07;15.90;86.90
17986;DHT22;9118;48.122;11.546;2023-05-31T03:51:34;15.40;86.90
17986;DHT22;9118;48.122;11.546;2023-05-31T03:54:01;15.90;87.50
17986;DHT22;9118;48.122;11.546;2023-05-31T03:56:28;15.80;87.40
17986;DHT22;9118;48.122;11.546;2023-05-31T03:58:55;15.90;87.20
17986;DHT22;9118;48.122;11.546;2023-05-31T04:01:25;16.00;87.80
17986;DHT22;9118;48.122;11.546;2023-05-31T04:03:52;16.00;88.40
17986;DHT22;9118;48.122;11.546;2023-05-31T04:06:19;15.90;87.80
17986;DHT22;9118;48.122;11.546;2023-05-31T04:08:48;16.00;86.60
17986;DHT22;9118;48.122;11.546;2023-05-31T04:11:15;15.90;89.40
17986;DHT22;9118;48.122;11.546;2023-05-31T04:13:42;15.90;86.90
17986;DHT22;9118;48.122;11.546;2023-05-31T04:16:10;15.90;87.00
17986;DHT22;9118;48.122;11.546;2023-05-31T04:18:38;15.80;86.80
17986;DHT22;9118;48.122;11.546;2023-05-31T04:21:06;15.70;87.30
17986;DHT22;9118;48.122;11.546;2023-05-31T04:23:33;15.90;86.90
17986;DHT22;9118;48.122;11.546;2023-05-31T04:26:05;16.00;87.60
17986;DHT22;9118;48.122;11.546;2023-05-31T04:28:32;15.90;88.00
17986;DHT22;9118;48.122;11.546;2023-05-31T04:31:00;15.90;87.00
17986;DHT22;9118;48.122;11.546;2023-05-31T04:33:27;16.20;87.20
17986;DHT22;9118;48.122;11.546;2023-05-31T04:35:58;16.00;87.20
17986;DHT22;9118;48.122;11.546;2023-05-31T04:38:26;16.00;84.10
17986;DHT22;9118;48.122;11.546;2023-05-31T04:40:53;16.00;86.50
17986;DHT22;9118;48.122;11.546;2023-05-31T04:43:21;16.00;87.20
17986;DHT22;9118;48.122;11.546;2023-05-31T04:45:48;16.50;86.50
17986;DHT22;9118;48.122;11.546;2023-05-31T04:48:16;16.30;86.70
17986;DHT22;9118;48.122;11.546;2023-05-31T04:50:43;16.10;87.10
17986;DHT22;9118;48.122;11.546;2023-05-31T04:53:13;16.00;86.40
17986;DHT22;9118;48.122;11.546;2023-05-31T04:55:40;16.00;86.30
17986;DHT22;9118;48.122;11.546;2023-05-31T04:58:08;16.10;86.50
17986;DHT22;9118;48.122;11.546;2023-05-31T05:00:35;16.10;86.80
17986;DHT22;9118;48.122;11.546;2023-05-31T05:03:03;16.20;86.60
17986;DHT22;9118;48.122;11.546;2023-05-31T05:05:32;16.50;87.30
17986;DHT22;9118;48.122;11.546;2023-05-31T05:07:59;15.80;84.30
17986;DHT22;9118;48.122;11.546;2023-05-31T05:10:27;16.00;87.10
17986;DHT22;9118;48.122;11.546;2023-05-31T05:12:54;16.20;87.20
17986;DHT22;9118;48.122;11.546;2023-05-31T05:15:21;16.50;87.20
17986;DHT22;9118;48.122;11.546;2023-05-31T05:17:48;16.10;88.30
17986;DHT22;9118;48.122;11.546;2023-05-31T05:20:15;16.20;87.10
17986;DHT22;9118;48.122;11.546;2023-05-31T05:22:49;16.30;86.70
17986;DHT22;9118;48.122;11.546;2023-05-31T05:25:18;16.50;86.70
17986;DHT22;9118;48.122;11.546;2023-05-31T05:27:48;16.30;88.90
17986;DHT22;9118;48.122;11.546;2023-05-31T05:30:15;16.30;86.60
17986;DHT22;9118;48.122;11.546;2023-05-31T05:32:42;16.20;86.50
17986;DHT22;9118;48.122;11.546;2023-05-31T05:35:10;16.60;87.90
17986;DHT22;9118;48.122;11.546;2023-05-31T05:37:37;16.40;87.50
17986;DHT22;9118;48.122;11.546;2023-05-31T05:40:05;16.40;88.10
17986;DHT22;9118;48.122;11.546;2023-05-31T05:42:33;17.10;87.20
17986;DHT22;9118;48.122;11.546;2023-05-31T05:45:05;16.50;86.70
17986;DHT22;9118;48.122;11.546;2023-05-31T05:47:32;16.30;86.00
17986;DHT22;9118;48.122;11.546;2023-05-31T05:50:00;16.30;86.80
17986;DHT22;9118;48.122;11.546;2023-05-31T05:52:27;16.50;87.00
17986;DHT22;9118;48.122;11.546;2023-05-31T05:54:55;16.40;87.70
17986;DHT22;9118;48.122;11.546;2023-05-31T05:57:25;16.50;87.10
17986;DHT22;9118;48.122;11.546;2023-05-31T05:59:53;16.50;85.90
17986;DHT22;9118;48.122;11.546;2023-05-31T06:02:21;17.00;90.00
17986;DHT22;9118;48.122;11.546;2023-05-31T06:04:48;16.90;89.20
17986;DHT22;9118;48.122;11.546;2023-05-31T06:07:17;17.20;87.70
17986;DHT22;9118;48.122;11.546;2023-05-31T06:09:45;17.30;86.70
17986;DHT22;9118;48.122;11.546;2023-05-31T06:12:13;17.40;86.70
17986;DHT22;9118;48.122;11.546;2023-05-31T06:14:40;17.50;85.80
17986;DHT22;9118;48.122;11.546;2023-05-31T06:17:07;17.60;86.00
17986;DHT22;9118;48.122;11.546;2023-05-31T06:19:36;17.60;86.60
17986;DHT22;9118;48.122;11.546;2023-05-31T06:22:03;17.70;88.20
17986;DHT22;9118;48.122;11.546;2023-05-31T06:24:31;17.80;84.70
17986;DHT22;9118;48.122;11.546;2023-05-31T06:26:58;18.20;86.80
17986;DHT22;9118;48.122;11.546;2023-05-31T06:29:24;18.30;83.90
17986;DHT22;9118;48.122;11.546;2023-05-31T06:31:52;18.40;83.70
17986;DHT22;9118;48.122;11.546;2023-05-31T06:34:22;18.70;87.20
17986;DHT22;9118;48.122;11.546;2023-05-31T06:36:51;17.00;87.30
17986;DHT22;9118;48.122;11.546;2023-05-31T06:39:24;17.50;88.20
17986;DHT22;9118;48.122;11.546;2023-05-31T06:42:05;19.50;81.90
17986;DHT22;9118;48.122;11.546;2023-05-31T06:44:34;18.60;84.60
17986;DHT22;9118;48.122;11.546;2023-05-31T06:47:03;18.70;90.00
17986;DHT22;9118;48.122;11.546;2023-05-31T06:49:33;18.60;86.50
17986;DHT22;9118;48.122;11.546;2023-05-31T06:52:11;18.60;88.10
17986;DHT22;9118;48.122;11.546;2023-05-31T06:54:51;19.30;89.40
17986;DHT22;9118;48.122;11.546;2023-05-31T06:57:19;16.60;83.70
17986;DHT22;9118;48.122;11.546;2023-05-31T06:59:49;19.10;90.10
17986;DHT22;9118;48.122;11.546;2023-05-31T07:02:16;19.30;86.10
17986;DHT22;9118;48.122;11.546;2023-05-31T07:04:48;19.60;86.30
17986;DHT22;9118;48.122;11.546;2023-05-31T07:07:20;18.60;84.40
17986;DHT22;9118;48.122;11.546;2023-05-31T07:09:56;18.90;81.20
17986;DHT22;9118;48.122;11.546;2023-05-31T07:12:28;19.00;86.00
17986;DHT22;9118;48.122;11.546;2023-05-31T07:14:55;19.20;88.70
17986;DHT22;9118;48.122;11.546;2023-05-31T07:17:22;19.00;84.90
17986;DHT22;9118;48.122;11.546;2023-05-31T07:19:49;19.10;83.40
17986;DHT22;9118;48.122;11.546;2023-05-31T07:22:18;19.20;83.40
17986;DHT22;9118;48.122;11.546;2023-05-31T07:24:45;19.20;83.10
17986;DHT22;9118;48.122;11.546;2023-05-31T07:27:12;19.20;83.30
17986;DHT22;9118;48.122;11.546;2023-05-31T07:29:40;19.80;83.40
17986;DHT22;9118;48.122;11.546;2023-05-31T07:32:07;19.30;83.00
17986;DHT22;9118;48.122;11.546;2023-05-31T07:34:49;19.40;85.60
17986;DHT22;9118;48.122;11.546;2023-05-31T07:37:18;19.80;86.50
17986;DHT22;9118;48.122;11.546;2023-05-31T07:39:45;20.20;84.50
17986;DHT22;9118;48.122;11.546;2023-05-31T07:42:16;19.50;83.30
17986;DHT22;9118;48.122;11.546;2023-05-31T07:44:44;19.70;84.90
17986;DHT22;9118;48.122;11.546;2023-05-31T07:47:14;20.00;87.90
17986;DHT22;9118;48.122;11.546;2023-05-31T07:49:41;19.90;84.10
17986;DHT22;9118;48.122;11.546;2023-05-31T07:52:08;20.00;83.80
17986;DHT22;9118;48.122;11.546;2023-05-31T07:54:37;20.20;81.50
17986;DHT22;9118;48.122;11.546;2023-05-31T07:57:04;20.00;81.80
17986;DHT22;9118;48.122;11.546;2023-05-31T07:59:31;20.10;81.40
17986;DHT22;9118;48.122;11.546;2023-05-31T08:01:58;20.40;81.20
17986;DHT22;9118;48.122;11.546;2023-05-31T08:04:25;20.20;81.00
17986;DHT22;9118;48.122;11.546;2023-05-31T08:06:52;20.20;80.40
17986;DHT22;9118;48.122;11.546;2023-05-31T08:09:20;20.20;81.00
17986;DHT22;9118;48.122;11.546;2023-05-31T08:11:57;20.30;82.60
17986;DHT22;9118;48.122;11.546;2023-05-31T08:14:24;21.00;82.00
17986;DHT22;9118;48.122;11.546;2023-05-31T08:16:55;20.50;82.00
17986;DHT22;9118;48.122;11.546;2023-05-31T08:19:39;20.40;82.20
17986;DHT22;9118;48.122;11.546;2023-05-31T08:22:07;21.00;78.50
17986;DHT22;9118;48.122;11.546;2023-05-31T08:24:48;20.60;79.60
17986;DHT22;9118;48.122;11.546;2023-05-31T08:27:34;21.00;81.50
17986;DHT22;9118;48.122;11.546;2023-05-31T08:30:15;21.30;77.10
17986;DHT22;9118;48.122;11.546;2023-05-31T08:32:42;20.90;79.80
17986;DHT22;9118;48.122;11.546;2023-05-31T08:35:34;21.00;78.20
17986;DHT22;9118;48.122;11.546;2023-05-31T08:38:17;20.90;78.20
17986;DHT22;9118;48.122;11.546;2023-05-31T08:41:23;21.20;80.10
17986;DHT22;9118;48.122;11.546;2023-05-31T08:44:24;21.20;79.60
17986;DHT22;9118;48.122;11.546;2023-05-31T08:46:58;20.20;74.30
17986;DHT22;9118;48.122;11.546;2023-05-31T08:49:29;21.20;79.00
17986;DHT22;9118;48.122;11.546;2023-05-31T08:51:59;21.20;77.00
17986;DHT22;9118;48.122;11.546;2023-05-31T08:54:27;21.30;78.70
17986;DHT22;9118;48.122;11.546;2023-05-31T08:56:55;21.30;76.50
17986;DHT22;9118;48.122;11.546;2023-05-31T08:59:23;21.30;76.70
17986;DHT22;9118;48.122;11.546;2023-05-31T09:01:51;21.40;75.70
17986;DHT22;9118;48.122;11.546;2023-05-31T09:04:18;21.60;76.10
17986;DHT22;9118;48.122;11.546;2023-05-31T09:06:46;21.40;75.70
17986;DHT22;9118;48.122;11.546;2023-05-31T09:09:13;21.50;76.40
17986;DHT22;9118;48.122;11.546;2023-05-31T09:11:41;21.50;75.40
17986;DHT22;9118;48.122;11.546;2023-05-31T09:14:08;21.50;76.20
17986;DHT22;9118;48.122;11.546;2023-05-31T09:16:48;21.60;76.80
17986;DHT22;9118;48.122;11.546;2023-05-31T09:19:19;21.80;78.60
17986;DHT22;9118;48.122;11.546;2023-05-31T09:21:46;21.80;77.70
17986;DHT22;9118;48.122;11.546;2023-05-31T09:24:13;21.90;76.70
17986;DHT22;9118;48.122;11.546;2023-05-31T09:26:46;21.90;76.10
17986;DHT22;9118;48.122;11.546;2023-05-31T09:29:14;22.20;74.70
17986;DHT22;9118;48.122;11.546;2023-05-31T09:31:45;21.90;73.80
17986;DHT22;9118;48.122;11.546;2023-05-31T09:34:27;21.70;73.50
17986;DHT22;9118;48.122;11.546;2023-05-31T09:36:57;21.90;77.90
17986;DHT22;9118;48.122;11.546;2023-05-31T09:39:25;21.90;74.00
17986;DHT22;9118;48.122;11.546;2023-05-31T09:41:52;21.70;73.70
17986;DHT22;9118;48.122;11.546;2023-05-31T09:44:25;22.00;73.70
17986;DHT22;9118;48.122;11.546;2023-05-31T09:46:55;22.00;74.10
17986;DHT22;9118;48.122;11.546;2023-05-31T09:49:23;22.10;75.80
17986;DHT22;9118;48.122;11.546;2023-05-31T09:51:53;22.20;74.30
17986;DHT22;9118;48.122;11.546;2023-05-31T09:54:20;22.30;73.90
17986;DHT22;9118;48.122;11.546;2023-05-31T09:56:50;22.40;72.60
17986;DHT22;9118;48.122;11.546;2023-05-31T09:59:18;22.30;73.70
17986;DHT22;9118;48.122;11.546;2023-05-31T10:01:45;22.40;75.20
17986;DHT22;9118;48.122;11.546;2023-05-31T10:04:15;22.20;72.80
17986;DHT22;9118;48.122;11.546;2023-05-31T10:06:45;22.70;74.70
17986;DHT22;9118;48.122;11.546;2023-05-31T10:09:14;23.00;74.50
17986;DHT22;9118;48.122;11.546;2023-05-31T10:11:49;22.50;73.60
17986;DHT22;9118;48.122;11.546;2023-05-31T10:14:21;22.60;71.10
17986;DHT22;9118;48.122;11.546;2023-05-31T10:16:54;21.90;70.50
17986;DHT22;9118;48.122;11.546;2023-05-31T10:19:31;22.80;71.10
17986;DHT22;9118;48.122;11.546;2023-05-31T10:22:04;23.20;71.90
17986;DHT22;9118;48.122;11.546;2023-05-31T10:24:39;22.70;71.60
17986;DHT22;9118;48.122;11.546;2023-05-31T10:27:22;23.40;69.30
17986;DHT22;9118;48.122;11.546;2023-05-31T10:29:58;23.10;71.30
17986;DHT22;9118;48.122;11.546;2023-05-31T10:32:36;24.10;72.00
17986;DHT22;9118;48.122;11.546;2023-05-31T10:38:17;22.80;68.30
17986;DHT22;9118;48.122;11.546;2023-05-31T10:41:16;22.60;72.30
17986;DHT22;9118;48.122;11.546;2023-05-31T10:44:22;23.20;75.10
17986;DHT22;9118;48.122;11.546;2023-05-31T10:47:02;22.10;69.60
17986;DHT22;9118;48.122;11.546;2023-05-31T10:49:36;23.60;68.60
17986;DHT22;9118;48.122;11.546;2023-05-31T10:52:09;23.80;70.90
17986;DHT22;9118;48.122;11.546;2023-05-31T10:54:40;24.40;70.50
17986;DHT22;9118;48.122;11.546;2023-05-31T10:57:28;23.50;70.30
17986;DHT22;9118;48.122;11.546;2023-05-31T11:09:37;23.00;68.60
17986;DHT22;9118;48.122;11.546;2023-05-31T11:12:35;23.40;69.00
17986;DHT22;9118;48.122;11.546;2023-05-31T11:15:05;23.60;66.30
17986;DHT22;9118;48.122;11.546;2023-05-31T11:19:02;23.10;65.80
17986;DHT22;9118;48.122;11.546;2023-05-31T11:21:49;23.70;68.90
17986;DHT22;9118;48.122;11.546;2023-05-31T11:24:30;23.70;67.80
17986;DHT22;9118;48.122;11.546;2023-05-31T11:27:12;23.70;69.20
17986;DHT22;9118;48.122;11.546;2023-05-31T11:29:58;23.90;68.40
17986;DHT22;9118;48.122;11.546;2023-05-31T11:33:14;24.20;72.30
17986;DHT22;9118;48.122;11.546;2023-05-31T11:39:32;24.70;66.70
17986;DHT22;9118;48.122;11.546;2023-05-31T11:41:59;24.80;68.30
17986;DHT22;9118;48.122;11.546;2023-05-31T11:44:33;23.80;70.20
17986;DHT22;9118;48.122;11.546;2023-05-31T11:47:04;22.70;67.10
17986;DHT22;9118;48.122;11.546;2023-05-31T11:49:32;23.80;67.50
17986;DHT22;9118;48.122;11.546;2023-05-31T11:52:05;23.90;67.00
17986;DHT22;9118;48.122;11.546;2023-05-31T11:54:34;24.00;66.30
17986;DHT22;9118;48.122;11.546;2023-05-31T11:57:05;23.70;65.90
17986;DHT22;9118;48.122;11.546;2023-05-31T11:59:36;25.60;67.80
17986;DHT22;9118;48.122;11.546;2023-05-31T12:02:05;24.30;69.40
17986;DHT22;9118;48.122;11.546;2023-05-31T12:04:33;24.30;68.60
17986;DHT22;9118;48.122;11.546;2023-05-31T12:07:02;24.50;68.40
17986;DHT22;9118;48.122;11.546;2023-05-31T12:09:31;24.30;68.00
17986;DHT22;9118;48.122;11.546;2023-05-31T12:12:01;24.90;70.40
17986;DHT22;9118;48.122;11.546;2023-05-31T12:14:31;24.30;67.90
17986;DHT22;9118;48.122;11.546;2023-05-31T12:17:01;24.30;67.60
17986;DHT22;9118;48.122;11.546;2023-05-31T12:19:30;24.40;68.80
17986;DHT22;9118;48.122;11.546;2023-05-31T12:21:58;24.40;71.00
17986;DHT22;9118;48.122;11.546;2023-05-31T12:24:26;23.60;67.90
17986;DHT22;9118;48.122;11.546;2023-05-31T12:26:54;24.70;68.80
17986;DHT22;9118;48.122;11.546;2023-05-31T12:29:27;24.50;70.30
17986;DHT22;9118;48.122;11.546;2023-05-31T12:32:00;24.50;66.00
17986;DHT22;9118;48.122;11.546;2023-05-31T12:34:28;24.10;66.70
17986;DHT22;9118;48.122;11.546;2023-05-31T12:36:56;24.40;67.00
17986;DHT22;9118;48.122;11.546;2023-05-31T12:39:24;25.30;69.10
17986;DHT22;9118;48.122;11.546;2023-05-31T12:41:51;24.40;67.70
17986;DHT22;9118;48.122;11.546;2023-05-31T12:44:20;24.40;66.10
17986;DHT22;9118;48.122;11.546;2023-05-31T12:46:51;25.10;66.20
17986;DHT22;9118;48.122;11.546;2023-05-31T12:49:21;25.00;67.20
17986;DHT22;9118;48.122;11.546;2023-05-31T12:52:03;25.30;70.20
17986;DHT22;9118;48.122;11.546;2023-05-31T12:54:37;23.60;64.50
17986;DHT22;9118;48.122;11.546;2023-05-31T12:57:39;25.10;62.20
17986;DHT22;9118;48.122;11.546;2023-05-31T13:00:08;24.80;64.00
17986;DHT22;9118;48.122;11.546;2023-05-31T13:02:39;25.50;64.30
17986;DHT22;9118;48.122;11.546;2023-05-31T13:05:07;25.10;65.80
17986;DHT22;9118;48.122;11.546;2023-05-31T13:07:36;25.10;65.40
17986;DHT22;9118;48.122;11.546;2023-05-31T13:10:20;25.20;62.60
17986;DHT22;9118;48.122;11.546;2023-05-31T13:13:11;25.20;68.80
17986;DHT22;9118;48.122;11.546;2023-05-31T13:15:47;25.10;67.30
17986;DHT22;9118;48.122;11.546;2023-05-31T13:18:31;25.30;70.80
17986;DHT22;9118;48.122;11.546;2023-05-31T13:21:00;25.10;68.20
17986;DHT22;9118;48.122;11.546;2023-05-31T13:23:46;25.20;68.40
17986;DHT22;9118;48.122;11.546;2023-05-31T13:26:26;26.60;72.20
17986;DHT22;9118;48.122;11.546;2023-05-31T13:32:08;25.50;69.60
17986;DHT22;9118;48.122;11.546;2023-05-31T13:34:43;26.20;68.10
17986;DHT22;9118;48.122;11.546;2023-05-31T13:37:40;25.60;68.40
17986;DHT22;9118;48.122;11.546;2023-05-31T13:40:12;25.80;72.90
17986;DHT22;9118;48.122;11.546;2023-05-31T13:42:40;26.00;70.80
17986;DHT22;9118;48.122;11.546;2023-05-31T13:45:10;27.30;69.40
17986;DHT22;9118;48.122;11.546;2023-05-31T13:47:52;27.20;61.80
17986;DHT22;9118;48.122;11.546;2023-05-31T13:50:24;28.80;66.20
17986;DHT22;9118;48.122;11.546;2023-05-31T13:53:05;29.00;63.60
17986;DHT22;9118;48.122;11.546;2023-05-31T13:55:34;31.70;62.90
17986;DHT22;9118;48.122;11.546;2023-05-31T13:58:05;33.90;60.40
17986;DHT22;9118;48.122;11.546;2023-05-31T14:00:42;34.40;51.70
17986;DHT22;9118;48.122;11.546;2023-05-31T14:06:16;38.10;50.50
17986;DHT22;9118;48.122;11.546;2023-05-31T14:08:44;40.30;52.90
17986;DHT22;9118;48.122;11.546;2023-05-31T14:11:12;39.90;49.20
17986;DHT22;9118;48.122;11.546;2023-05-31T14:13:42;41.20;45.70
17986;DHT22;9118;48.122;11.546;2023-05-31T14:16:24;42.60;48.80
17986;DHT22;9118;48.122;11.546;2023-05-31T14:18:55;43.00;47.40
17986;DHT22;9118;48.122;11.546;2023-05-31T14:21:33;44.70;45.60
17986;DHT22;9118;48.122;11.546;2023-05-31T14:24:04;43.10;45.20
17986;DHT22;9118;48.122;11.546;2023-05-31T14:26:34;45.80;47.40
17986;DHT22;9118;48.122;11.546;2023-05-31T14:29:04;45.50;44.80
17986;DHT22;9118;48.122;11.546;2023-05-31T14:31:31;46.30;45.60
17986;DHT22;9118;48.122;11.546;2023-05-31T14:36:59;47.30;44.00
17986;DHT22;9118;48.122;11.546;2023-05-31T14:39:32;48.40;43.60
17986;DHT22;9118;48.122;11.546;2023-05-31T14:45:24;51.10;44.70
17986;DHT22;9118;48.122;11.546;2023-05-31T14:47:56;51.40;44.60
17986;DHT22;9118;48.122;11.546;2023-05-31T14:50:25;52.30;45.10
17986;DHT22;9118;48.122;11.546;2023-05-31T14:53:06;53.00;43.60
17986;DHT22;9118;48.122;11.546;2023-05-31T14:55:40;53.70;44.00
17986;DHT22;9118;48.122;11.546;2023-05-31T14:58:15;54.00;39.90
17986;DHT22;9118;48.122;11.546;2023-05-31T15:00:44;54.00;40.20
17986;DHT22;9118;48.122;11.546;2023-05-31T15:03:16;54.60;37.80
17986;DHT22;9118;48.122;11.546;2023-05-31T15:05:57;55.20;37.70
17986;DHT22;9118;48.122;11.546;2023-05-31T15:08:40;55.50;37.60
17986;DHT22;9118;48.122;11.546;2023-05-31T15:11:34;55.90;38.40
17986;DHT22;9118;48.122;11.546;2023-05-31T15:22:06;54.70;36.20
17986;DHT22;9118;48.122;11.546;2023-05-31T15:24:43;55.30;37.20
17986;DHT22;9118;48.122;11.546;2023-05-31T15:27:11;52.20;38.80
17986;DHT22;9118;48.122;11.546;2023-05-31T15:29:42;48.70;41.90
17986;DHT22;9118;48.122;11.546;2023-05-31T15:32:23;43.70;44.30
17986;DHT22;9118;48.122;11.546;2023-05-31T15:42:48;37.30;48.40
17986;DHT22;9118;48.122;11.546;2023-05-31T15:45:15;36.70;50.30
17986;DHT22;9118;48.122;11.546;2023-05-31T15:47:47;36.70;51.70
17986;DHT22;9118;48.122;11.546;2023-05-31T15:50:16;36.20;51.80
17986;DHT22;9118;48.122;11.546;2023-05-31T15:55:33;34.60;52.60
17986;DHT22;9118;48.122;11.546;2023-05-31T15:58:39;33.90;54.60
17986;DHT22;9118;48.122;11.546;2023-05-31T16:01:36;32.60;55.30
17986;DHT22;9118;48.122;11.546;2023-05-31T16:04:19;33.00;57.20
17986;DHT22;9118;48.122;11.546;2023-05-31T16:06:56;31.30;56.90
17986;DHT22;9118;48.122;11.546;2023-05-31T16:09:38;31.20;57.30
17986;DHT22;9118;48.122;11.546;2023-05-31T16:12:41;30.90;57.80
17986;DHT22;9118;48.122;11.546;2023-05-31T16:15:28;31.40;58.60
17986;DHT22;9118;48.122;11.546;2023-05-31T16:18:09;31.00;61.10
17986;DHT22;9118;48.122;11.546;2023-05-31T16:20:36;30.40;60.10
17986;DHT22;9118;48.122;11.546;2023-05-31T16:23:04;30.70;62.70
17986;DHT22;9118;48.122;11.546;2023-05-31T16:25:45;30.30;61.00
17986;DHT22;9118;48.122;11.546;2023-05-31T16:28:27;27.70;61.50
17986;DHT22;9118;48.122;11.546;2023-05-31T16:38:00;30.00;60.90
17986;DHT22;9118;48.122;11.546;2023-05-31T16:40:35;30.30;62.60
17986;DHT22;9118;48.122;11.546;2023-05-31T16:43:22;30.80;61.80
17986;DHT22;9118;48.122;11.546;2023-05-31T16:46:00;29.70;62.50
17986;DHT22;9118;48.122;11.546;2023-05-31T16:48:31;30.80;63.00
17986;DHT22;9118;48.122;11.546;2023-05-31T16:51:31;29.30;65.30
17986;DHT22;9118;48.122;11.546;2023-05-31T16:54:41;30.20;66.10